Time;durP1;ratioP1;P1;durP2;ratioP2;P2;SDS_P1;SDS_P2;PMS_P1;PMS_P2;Temp;Humidity;BMP_temperature;BMP_pressure;BME280_temperature;BME280_humidity;BME280_pressure;Samples;Min_cycle;Max_cycle;Signal;HPM_P1;HPM_P2
2022/12/10 00:01:24;;;;;;;25.93;15.17;;;;;;;;;;5045182;28;20618;-77
2022/12/10 00:04:29;;;;;;;27.00;15.97;;;;;;;;;;5034128;28;20544;-77
2022/12/10 00:07:33;;;;;;;27.70;16.27;;;;;;;;;;5045342;28;20543;-77
2022/12/10 00:10:40;;;;;;;28.90;17.63;;;;;;;;;;5056361;28;20887;-77
2022/12/10 00:13:45;;;;;;;27.60;16.30;;;;;;;;;;5042578;28;20618;-77
2022/12/10 00:16:49;;;;;;;27.40;16.50;;;;;;;;;;5025628;28;20540;-77
2022/12/10 00:19:54;;;;;;;30.63;17.10;;;;;;;;;;5025436;28;21081;-76
2022/12/10 00:22:58;;;;;;;24.57;15.83;;;;;;;;;;5025099;28;21120;-77
2022/12/10 00:26:06;;;;;;;26.17;16.17;;;;;;;;;;5025110;28;20595;-77
2022/12/10 00:29:11;;;;;;;28.03;15.70;;;;;;;;;;5037046;28;21102;-76
2022/12/10 00:32:16;;;;;;;25.13;14.93;;;;;;;;;;5037186;28;20659;-77
2022/12/10 00:35:20;;;;;;;26.87;15.57;;;;;;;;;;5025222;28;20535;-77
2022/12/10 00:38:24;;;;;;;26.63;16.10;;;;;;;;;;5024918;28;20544;-77
2022/12/10 00:41:36;;;;;;;23.47;14.93;;;;;;;;;;5014148;28;20638;-76
2022/12/10 00:44:40;;;;;;;26.90;15.63;;;;;;;;;;5013909;28;20547;-77
2022/12/10 00:47:44;;;;;;;26.93;16.03;;;;;;;;;;5024916;28;21176;-77
2022/12/10 00:51:00;;;;;;;25.57;15.13;;;;;;;;;;5025653;28;20535;-77
2022/12/10 00:54:05;;;;;;;26.80;15.43;;;;;;;;;;5037500;28;20540;-76
2022/12/10 00:57:09;;;;;;;25.57;15.30;;;;;;;;;;5013331;28;20614;-76
2022/12/10 01:00:14;;;;;;;27.20;15.63;;;;;;;;;;5002727;28;20603;-77
2022/12/10 01:03:18;;;;;;;26.83;15.93;;;;;;;;;;5012575;28;20591;-77
2022/12/10 01:06:28;;;;;;;24.87;15.57;;;;;;;;;;5036268;28;20548;-76
2022/12/10 01:09:33;;;;;;;29.27;16.23;;;;;;;;;;5024549;28;20604;-77
2022/12/10 01:12:37;;;;;;;24.77;14.83;;;;;;;;;;5013117;28;21239;-77
2022/12/10 01:15:41;;;;;;;24.40;14.87;;;;;;;;;;5013274;28;21078;-76
2022/12/10 01:18:45;;;;;;;24.93;14.87;;;;;;;;;;5038441;28;20606;-77
2022/12/10 01:21:53;;;;;;;26.07;15.60;;;;;;;;;;5032780;28;21156;-76
2022/12/10 01:24:57;;;;;;;27.43;16.13;;;;;;;;;;5021274;28;21081;-76
2022/12/10 01:28:01;;;;;;;22.10;14.60;;;;;;;;;;5044424;28;20539;-77
2022/12/10 01:31:10;;;;;;;25.63;15.07;;;;;;;;;;5043904;28;20618;-77
2022/12/10 01:34:15;;;;;;;25.90;16.07;;;;;;;;;;5032868;28;20543;-76
2022/12/10 01:37:18;;;;;;;25.87;16.10;;;;;;;;;;5055572;28;21061;-77
2022/12/10 01:40:22;;;;;;;23.70;15.47;;;;;;;;;;5044036;28;20543;-76
2022/12/10 01:43:27;;;;;;;23.67;14.50;;;;;;;;;;5043980;28;21129;-76
2022/12/10 01:46:34;;;;;;;26.67;15.63;;;;;;;;;;5055274;28;20598;-76
2022/12/10 01:49:40;;;;;;;23.97;15.70;;;;;;;;;;5055281;28;20900;-77
2022/12/10 01:52:45;;;;;;;29.10;17.37;;;;;;;;;;5032130;28;20653;-77
2022/12/10 01:55:50;;;;;;;24.93;15.07;;;;;;;;;;5032090;28;20601;-77
2022/12/10 01:58:56;;;;;;;26.73;15.47;;;;;;;;;;5054963;28;20558;-77
2022/12/10 02:02:27;;;;;;;28.57;16.37;;;;;;;;;;5054751;28;20622;-77
2022/12/10 02:05:51;;;;;;;26.30;15.93;;;;;;;;;;5055561;28;20535;-77
2022/12/10 02:09:22;;;;;;;27.27;16.03;;;;;;;;;;5020047;28;20598;-77
2022/12/10 02:12:42;;;;;;;24.17;15.53;;;;;;;;;;5054361;28;21224;-77
2022/12/10 02:15:56;;;;;;;27.13;16.37;;;;;;;;;;5065144;28;20552;-77
2022/12/10 02:19:15;;;;;;;26.73;16.23;;;;;;;;;;5031890;28;20543;-77
2022/12/10 02:22:22;;;;;;;27.33;17.00;;;;;;;;;;5043441;28;21165;-77
2022/12/10 02:25:37;;;;;;;27.03;15.87;;;;;;;;;;5043578;28;20883;-77
2022/12/10 02:29:17;;;;;;;25.13;16.57;;;;;;;;;;5055067;28;20560;-76
2022/12/10 02:32:26;;;;;;;26.87;16.50;;;;;;;;;;5020864;28;20646;-77
2022/12/10 02:35:38;;;;;;;25.90;15.33;;;;;;;;;;5032569;28;21061;-77
2022/12/10 02:38:43;;;;;;;24.80;15.43;;;;;;;;;;5043213;28;20543;-77
2022/12/10 02:41:52;;;;;;;29.30;16.27;;;;;;;;;;5032328;28;20614;-77
2022/12/10 02:44:57;;;;;;;25.33;15.73;;;;;;;;;;5043631;28;21085;-77
2022/12/10 02:48:04;;;;;;;25.23;15.43;;;;;;;;;;5055040;28;21100;-77
2022/12/10 02:51:16;;;;;;;26.63;16.27;;;;;;;;;;5054687;28;20622;-77
2022/12/10 02:54:44;;;;;;;26.20;16.10;;;;;;;;;;5043415;28;20941;-77
2022/12/10 02:58:14;;;;;;;24.10;15.43;;;;;;;;;;5043793;28;20618;-77
2022/12/10 03:01:48;;;;;;;26.43;15.50;;;;;;;;;;5012520;28;20627;-77
2022/12/10 03:04:56;;;;;;;25.73;14.30;;;;;;;;;;5035700;28;20533;-76
2022/12/10 03:08:18;;;;;;;26.47;15.60;;;;;;;;;;5023323;28;20591;-77
2022/12/10 03:11:23;;;;;;;28.90;15.53;;;;;;;;;;5023164;28;20631;-76
2022/12/10 03:14:30;;;;;;;27.17;15.40;;;;;;;;;;5011686;28;20539;-76
2022/12/10 03:17:37;;;;;;;27.43;15.70;;;;;;;;;;5022457;28;20544;-76
2022/12/10 03:20:44;;;;;;;24.97;15.53;;;;;;;;;;5023157;28;20536;-77
2022/12/10 03:23:50;;;;;;;28.70;15.27;;;;;;;;;;5035411;28;20540;-77
2022/12/10 03:26:57;;;;;;;25.70;15.73;;;;;;;;;;5040310;28;20606;-77
2022/12/10 03:30:01;;;;;;;26.83;15.20;;;;;;;;;;5059056;28;21073;-76
2022/12/10 03:33:06;;;;;;;25.07;15.53;;;;;;;;;;5035239;28;21136;-77
2022/12/10 03:36:11;;;;;;;26.50;15.97;;;;;;;;;;5058666;28;20902;-77
2022/12/10 03:39:16;;;;;;;26.23;15.73;;;;;;;;;;5046228;28;20898;-76
2022/12/10 03:42:20;;;;;;;24.50;14.90;;;;;;;;;;5046244;28;20626;-77
2022/12/10 03:45:24;;;;;;;24.83;14.63;;;;;;;;;;5023682;28;20602;-77
2022/12/10 03:48:28;;;;;;;30.03;17.10;;;;;;;;;;5046089;28;21168;-77
2022/12/10 03:51:32;;;;;;;27.13;15.37;;;;;;;;;;5046108;28;20990;-77
2022/12/10 03:54:36;;;;;;;26.63;16.13;;;;;;;;;;5034457;28;20539;-76
2022/12/10 03:57:40;;;;;;;24.87;15.80;;;;;;;;;;5057271;28;20558;-77
2022/12/10 04:00:44;;;;;;;25.43;15.77;;;;;;;;;;5057982;28;20598;-77
2022/12/10 04:03:48;;;;;;;26.37;15.70;;;;;;;;;;5045785;28;20597;-77
2022/12/10 04:06:53;;;;;;;26.23;15.23;;;;;;;;;;5057302;28;20547;-77
2022/12/10 04:09:57;;;;;;;31.43;16.13;;;;;;;;;;5046230;28;20539;-77
2022/12/10 04:16:28;;;;;;;24.93;15.97;;;;;;;;;;5046071;28;20546;-77
2022/12/10 04:19:33;;;;;;;27.80;16.40;;;;;;;;;;5057713;28;20598;-77
2022/12/10 04:29:25;;;;;;;25.50;14.87;;;;;;;;;;5057682;28;20539;-77
2022/12/10 04:32:29;;;;;;;25.87;15.03;;;;;;;;;;5045218;28;20989;-77
2022/12/10 04:35:33;;;;;;;26.13;15.70;;;;;;;;;;5057068;28;20543;-77
2022/12/10 04:38:37;;;;;;;27.10;16.30;;;;;;;;;;5044593;28;21122;-77
2022/12/10 04:41:46;;;;;;;25.57;15.70;;;;;;;;;;5033936;28;20614;-77
2022/12/10 04:44:50;;;;;;;27.70;15.83;;;;;;;;;;5045939;28;20531;-77
2022/12/10 04:47:54;;;;;;;30.20;17.03;;;;;;;;;;5045407;28;20539;-77
2022/12/10 04:50:58;;;;;;;27.13;15.50;;;;;;;;;;5046451;28;20617;-77
2022/12/10 04:54:03;;;;;;;25.87;15.70;;;;;;;;;;5046206;28;20590;-77
2022/12/10 04:57:07;;;;;;;24.67;15.70;;;;;;;;;;5057667;28;20528;-77
2022/12/10 05:00:12;;;;;;;26.27;15.67;;;;;;;;;;5045317;28;20539;-77
2022/12/10 05:03:16;;;;;;;24.67;15.57;;;;;;;;;;5045283;28;20552;-76
2022/12/10 05:06:20;;;;;;;26.33;15.80;;;;;;;;;;5045174;28;20539;-77
2022/12/10 05:09:25;;;;;;;25.67;15.37;;;;;;;;;;5056778;28;20538;-76
2022/12/10 05:12:29;;;;;;;26.70;15.90;;;;;;;;;;5034379;28;20658;-77
2022/12/10 05:15:37;;;;;;;27.60;14.87;;;;;;;;;;5033417;28;20535;-77
2022/12/10 05:18:41;;;;;;;26.00;16.73;;;;;;;;;;5045003;28;20598;-77
2022/12/10 05:25:08;;;;;;;26.27;16.17;;;;;;;;;;5045611;28;20535;-76
2022/12/10 05:28:12;;;;;;;25.17;15.00;;;;;;;;;;5034094;28;20535;-77
2022/12/10 05:31:23;;;;;;;28.10;17.10;;;;;;;;;;5057038;28;21187;-77
2022/12/10 05:34:27;;;;;;;28.63;16.20;;;;;;;;;;5057160;28;20602;-77
2022/12/10 05:37:32;;;;;;;28.20;15.93;;;;;;;;;;5045174;28;20542;-77
2022/12/10 05:40:37;;;;;;;27.03;16.00;;;;;;;;;;5056516;28;21057;-77
2022/12/10 05:43:41;;;;;;;26.23;15.10;;;;;;;;;;5033942;28;20536;-77
2022/12/10 05:46:46;;;;;;;27.97;16.20;;;;;;;;;;5045274;28;20543;-77
2022/12/10 05:49:51;;;;;;;25.00;14.67;;;;;;;;;;5044518;28;20590;-77
2022/12/10 05:52:55;;;;;;;28.77;16.13;;;;;;;;;;5055641;28;20658;-77
2022/12/10 05:56:04;;;;;;;27.20;15.47;;;;;;;;;;5055911;28;20823;-77
2022/12/10 05:59:09;;;;;;;25.73;15.47;;;;;;;;;;5032563;28;20614;-77
2022/12/10 06:02:13;;;;;;;26.50;14.97;;;;;;;;;;5033264;28;21204;-77
2022/12/10 06:05:17;;;;;;;26.57;15.37;;;;;;;;;;5044469;28;20598;-77
2022/12/10 06:08:22;;;;;;;26.80;16.13;;;;;;;;;;5055418;28;21081;-78
2022/12/10 06:11:28;;;;;;;24.50;14.97;;;;;;;;;;5054934;28;20634;-77
2022/12/10 06:14:32;;;;;;;28.00;15.97;;;;;;;;;;5054241;28;20594;-77
2022/12/10 06:17:36;;;;;;;26.17;14.97;;;;;;;;;;5054276;28;20539;-77
2022/12/10 06:20:40;;;;;;;27.70;16.37;;;;;;;;;;5054557;28;20598;-77
2022/12/10 06:23:45;;;;;;;27.77;16.03;;;;;;;;;;5042251;28;20594;-77
2022/12/10 06:26:49;;;;;;;25.43;15.90;;;;;;;;;;5042675;28;20540;-77
2022/12/10 06:29:53;;;;;;;27.20;15.67;;;;;;;;;;5042370;28;20542;-77
2022/12/10 06:32:57;;;;;;;29.40;16.33;;;;;;;;;;5054826;28;21032;-77
2022/12/10 06:36:06;;;;;;;28.17;15.90;;;;;;;;;;5032056;28;20543;-77
2022/12/10 06:39:12;;;;;;;24.73;15.43;;;;;;;;;;5033240;28;20956;-78
2022/12/10 06:42:16;;;;;;;30.87;17.20;;;;;;;;;;5053597;28;20626;-77
2022/12/10 06:45:20;;;;;;;29.57;17.07;;;;;;;;;;5041746;28;20539;-77
2022/12/10 06:48:24;;;;;;;28.63;17.03;;;;;;;;;;5045034;28;20583;-77
2022/12/10 06:51:29;;;;;;;29.83;17.10;;;;;;;;;;5039882;28;21033;-77
2022/12/10 06:54:33;;;;;;;26.47;15.90;;;;;;;;;;5045719;28;20626;-77
2022/12/10 06:57:38;;;;;;;27.30;16.40;;;;;;;;;;5046789;28;20559;-77
2022/12/10 07:00:42;;;;;;;30.53;16.73;;;;;;;;;;5032300;28;20561;-77
2022/12/10 07:03:51;;;;;;;32.60;16.40;;;;;;;;;;5010573;28;21062;-77
2022/12/10 07:06:55;;;;;;;25.53;16.03;;;;;;;;;;5039666;28;20583;-77
2022/12/10 07:10:00;;;;;;;29.33;15.60;;;;;;;;;;5053361;28;20590;-77
2022/12/10 07:13:04;;;;;;;25.50;16.17;;;;;;;;;;5046572;28;20979;-77
2022/12/10 07:16:28;;;;;;;26.27;16.73;;;;;;;;;;5044563;28;20575;-77
2022/12/10 07:19:33;;;;;;;28.67;16.23;;;;;;;;;;5046325;28;20587;-77
2022/12/10 07:22:37;;;;;;;30.23;16.70;;;;;;;;;;5052290;28;20954;-77
2022/12/10 07:25:41;;;;;;;26.23;16.47;;;;;;;;;;5054506;28;20539;-78
2022/12/10 07:28:45;;;;;;;26.70;15.67;;;;;;;;;;5055029;28;20558;-78
2022/12/10 07:31:50;;;;;;;27.90;16.60;;;;;;;;;;5045051;28;21010;-78
2022/12/10 07:34:54;;;;;;;29.13;17.30;;;;;;;;;;5055890;28;20622;-78
2022/12/10 07:37:58;;;;;;;29.83;17.83;;;;;;;;;;5057227;28;20574;-80
2022/12/10 07:41:04;;;;;;;27.37;16.27;;;;;;;;;;5053230;28;20645;-77
2022/12/10 07:44:11;;;;;;;30.17;17.13;;;;;;;;;;5039543;28;21160;-77
2022/12/10 07:47:16;;;;;;;31.50;17.77;;;;;;;;;;5032112;28;20618;-78
2022/12/10 07:50:20;;;;;;;29.93;17.00;;;;;;;;;;5056328;28;20582;-79
2022/12/10 07:53:24;;;;;;;29.27;16.87;;;;;;;;;;5032517;28;20630;-78
2022/12/10 07:56:28;;;;;;;28.80;17.70;;;;;;;;;;5053989;28;20622;-78
2022/12/10 07:59:33;;;;;;;32.03;19.03;;;;;;;;;;5052427;28;20570;-78
2022/12/10 08:02:37;;;;;;;25.97;16.43;;;;;;;;;;5030175;28;20630;-79
2022/12/10 08:05:41;;;;;;;29.57;17.00;;;;;;;;;;5030156;28;20559;-78
2022/12/10 08:08:45;;;;;;;30.83;17.37;;;;;;;;;;5042551;28;20606;-78
2022/12/10 08:11:49;;;;;;;32.17;16.97;;;;;;;;;;5043585;28;20631;-78
2022/12/10 08:14:53;;;;;;;32.33;17.53;;;;;;;;;;5047282;28;20637;-78
2022/12/10 08:17:58;;;;;;;32.90;18.37;;;;;;;;;;5058147;28;20576;-78
2022/12/10 08:21:06;;;;;;;29.53;18.13;;;;;;;;;;5052597;28;20634;-78
2022/12/10 08:24:10;;;;;;;30.57;18.30;;;;;;;;;;5059774;28;20586;-78
2022/12/10 08:27:15;;;;;;;31.07;18.80;;;;;;;;;;5045491;28;20563;-78
2022/12/10 08:30:19;;;;;;;32.87;19.13;;;;;;;;;;5048569;28;20903;-78
2022/12/10 08:33:23;;;;;;;33.50;18.77;;;;;;;;;;5049362;28;20646;-78
2022/12/10 08:36:27;;;;;;;37.17;18.97;;;;;;;;;;5034754;28;20586;-78
2022/12/10 08:39:31;;;;;;;32.10;18.43;;;;;;;;;;5038897;28;20616;-78
2022/12/10 08:42:35;;;;;;;31.13;18.63;;;;;;;;;;5048190;28;20642;-78
2022/12/10 08:45:39;;;;;;;31.53;18.00;;;;;;;;;;5044423;28;20787;-78
2022/12/10 08:48:44;;;;;;;33.70;19.53;;;;;;;;;;5051358;28;20587;-78
2022/12/10 08:51:48;;;;;;;38.03;18.47;;;;;;;;;;5059068;28;20653;-78
2022/12/10 08:54:52;;;;;;;32.83;19.10;;;;;;;;;;5051866;28;20645;-79
2022/12/10 08:57:57;;;;;;;31.50;19.07;;;;;;;;;;5038611;28;20918;-78
2022/12/10 09:01:06;;;;;;;32.87;19.17;;;;;;;;;;5049459;28;20643;-78
2022/12/10 09:04:10;;;;;;;37.83;19.40;;;;;;;;;;5051091;28;20560;-78
2022/12/10 09:07:14;;;;;;;37.50;20.27;;;;;;;;;;5043975;28;20562;-77
2022/12/10 09:10:18;;;;;;;34.77;20.40;;;;;;;;;;5047938;28;20586;-79
2022/12/10 09:13:22;;;;;;;31.17;18.73;;;;;;;;;;5051839;28;20978;-78
2022/12/10 09:16:32;;;;;;;32.77;19.10;;;;;;;;;;5035959;28;20613;-78
2022/12/10 09:19:36;;;;;;;35.37;19.60;;;;;;;;;;5052374;28;20943;-77
2022/12/10 09:22:40;;;;;;;35.47;19.97;;;;;;;;;;5022707;28;20630;-77
2022/12/10 09:25:44;;;;;;;32.63;19.73;;;;;;;;;;5022837;28;20552;-77
2022/12/10 09:28:50;;;;;;;34.80;19.83;;;;;;;;;;5022786;28;20557;-77
2022/12/10 09:31:54;;;;;;;34.03;18.83;;;;;;;;;;5022648;28;20659;-77
2022/12/10 09:34:58;;;;;;;37.80;20.37;;;;;;;;;;5034023;28;20552;-77
2022/12/10 09:38:02;;;;;;;39.00;20.87;;;;;;;;;;5030587;28;21128;-77
2022/12/10 09:41:32;;;;;;;36.80;20.97;;;;;;;;;;5053530;28;21211;-77
2022/12/10 09:45:01;;;;;;;41.77;21.13;;;;;;;;;;5048345;28;20947;-77
2022/12/10 09:48:23;;;;;;;36.63;20.63;;;;;;;;;;5053034;28;20576;-77
2022/12/10 09:51:31;;;;;;;37.03;19.90;;;;;;;;;;5053138;28;20651;-77
2022/12/10 09:54:45;;;;;;;39.40;21.30;;;;;;;;;;5059556;23;20686;-78
2022/12/10 09:57:51;;;;;;;37.13;19.70;;;;;;;;;;5043166;28;20563;-78
2022/12/10 10:01:00;;;;;;;38.27;20.17;;;;;;;;;;5043831;28;20618;-78
2022/12/10 10:04:04;;;;;;;36.97;20.83;;;;;;;;;;5032526;28;20591;-78
2022/12/10 10:07:19;;;;;;;38.87;20.87;;;;;;;;;;5066672;28;20543;-78
2022/12/10 10:10:23;;;;;;;39.50;20.77;;;;;;;;;;5042733;28;20196;-78
2022/12/10 10:13:52;;;;;;;37.57;21.03;;;;;;;;;;5062661;28;20523;-78
2022/12/10 10:17:15;;;;;;;38.93;21.40;;;;;;;;;;5046963;28;20567;-78
2022/12/10 10:20:20;;;;;;;41.07;20.77;;;;;;;;;;5058590;28;20943;-78
2022/12/10 10:23:25;;;;;;;38.63;20.70;;;;;;;;;;5060150;28;20180;-78
2022/12/10 10:26:29;;;;;;;142.17;51.23;;;;;;;;;;5033880;28;20599;-78
2022/12/10 10:29:33;;;;;;;39.40;22.80;;;;;;;;;;5046090;28;20617;-78
2022/12/10 10:32:37;;;;;;;38.83;21.50;;;;;;;;;;5052299;28;20207;-78
2022/12/10 10:35:52;;;;;;;38.50;21.57;;;;;;;;;;5029600;28;20614;-78
2022/12/10 10:38:57;;;;;;;46.20;28.30;;;;;;;;;;5054570;28;20587;-78
2022/12/10 10:42:09;;;;;;;39.73;22.90;;;;;;;;;;5044290;28;20990;-78
2022/12/10 10:45:36;;;;;;;36.70;21.40;;;;;;;;;;5043664;28;20176;-78
2022/12/10 10:48:40;;;;;;;40.67;21.40;;;;;;;;;;5043858;28;20184;-78
2022/12/10 10:51:45;;;;;;;38.20;20.90;;;;;;;;;;5053688;28;20207;-78
2022/12/10 10:54:50;;;;;;;39.03;20.93;;;;;;;;;;5052302;28;20642;-78
2022/12/10 10:57:54;;;;;;;40.87;21.67;;;;;;;;;;5040756;28;20180;-78
2022/12/10 11:01:05;;;;;;;38.33;21.93;;;;;;;;;;5041920;28;20622;-78
2022/12/10 11:04:10;;;;;;;40.17;21.47;;;;;;;;;;5066236;28;20192;-78
2022/12/10 11:07:20;;;;;;;41.47;22.30;;;;;;;;;;5042204;28;20551;-78
2022/12/10 11:10:25;;;;;;;43.13;22.80;;;;;;;;;;5040544;28;20288;-78
2022/12/10 11:13:35;;;;;;;43.97;22.87;;;;;;;;;;5054134;28;20176;-78
2022/12/10 11:16:40;;;;;;;42.13;23.03;;;;;;;;;;5043716;28;20531;-78
2022/12/10 11:20:02;;;;;;;38.40;21.40;;;;;;;;;;5044266;28;20184;-79
2022/12/10 11:23:12;;;;;;;41.17;21.67;;;;;;;;;;5054075;28;20180;-79
2022/12/10 11:26:29;;;;;;;40.37;22.57;;;;;;;;;;5064804;28;20200;-79
2022/12/10 11:30:04;;;;;;;42.80;23.10;;;;;;;;;;5060824;28;20192;-79
2022/12/10 11:33:17;;;;;;;41.20;21.63;;;;;;;;;;5064722;28;20180;-79
2022/12/10 11:36:38;;;;;;;45.00;23.87;;;;;;;;;;5042438;28;20180;-79
2022/12/10 11:40:25;;;;;;;39.13;22.10;;;;;;;;;;5047224;28;20181;-79
2022/12/10 11:43:36;;;;;;;44.13;23.37;;;;;;;;;;5042469;28;20204;-79
2022/12/10 11:47:05;;;;;;;43.97;23.63;;;;;;;;;;5059103;28;20650;-79
2022/12/10 11:50:42;;;;;;;39.93;22.03;;;;;;;;;;5075308;28;20184;-79
2022/12/10 11:54:20;;;;;;;34.93;19.87;;;;;;;;;;5039510;28;20172;-79
2022/12/10 11:57:45;;;;;;;40.47;22.27;;;;;;;;;;5052212;28;20180;-79
2022/12/10 12:01:06;;;;;;;41.83;22.10;;;;;;;;;;5063706;28;20172;-79
2022/12/10 12:04:24;;;;;;;41.57;22.07;;;;;;;;;;5052872;28;20547;-79
2022/12/10 12:07:47;;;;;;;48.60;25.83;;;;;;;;;;5041268;28;20204;-79
2022/12/10 12:11:01;;;;;;;45.00;23.47;;;;;;;;;;5074611;28;20173;-79
2022/12/10 12:14:30;;;;;;;40.77;22.93;;;;;;;;;;5050501;28;20197;-79
2022/12/10 12:17:41;;;;;;;39.20;21.80;;;;;;;;;;5061297;28;20184;-79
2022/12/10 12:21:01;;;;;;;45.00;26.20;;;;;;;;;;5060440;28;20184;-79
2022/12/10 12:24:18;;;;;;;40.87;21.70;;;;;;;;;;5048792;28;20635;-79
2022/12/10 12:27:33;;;;;;;40.27;21.87;;;;;;;;;;5049338;28;20552;-78
2022/12/10 12:30:39;;;;;;;41.97;24.07;;;;;;;;;;5048789;28;20536;-79
2022/12/10 12:33:49;;;;;;;42.37;23.47;;;;;;;;;;5048730;28;20204;-79
2022/12/10 12:36:54;;;;;;;44.97;24.43;;;;;;;;;;5036630;28;20172;-79
2022/12/10 12:40:03;;;;;;;39.43;21.90;;;;;;;;;;5072388;28;20180;-79
2022/12/10 12:43:17;;;;;;;34.00;20.60;;;;;;;;;;5047675;28;20172;-79
2022/12/10 12:46:37;;;;;;;34.60;19.17;;;;;;;;;;5059439;28;20177;-79
2022/12/10 12:49:43;;;;;;;39.50;22.77;;;;;;;;;;5048289;28;20181;-79
2022/12/10 12:52:57;;;;;;;35.13;20.13;;;;;;;;;;5047184;28;20216;-79
2022/12/10 12:56:08;;;;;;;38.27;21.07;;;;;;;;;;5059127;28;20204;-79
2022/12/10 12:59:34;;;;;;;35.33;19.23;;;;;;;;;;5057963;28;20176;-79
2022/12/10 13:03:02;;;;;;;38.87;20.10;;;;;;;;;;5048152;28;20212;-79
2022/12/10 13:06:18;;;;;;;42.27;22.73;;;;;;;;;;5052275;28;20181;-79
2022/12/10 13:09:29;;;;;;;38.20;20.37;;;;;;;;;;5035112;28;20200;-79
2022/12/10 13:12:40;;;;;;;41.20;23.30;;;;;;;;;;5057094;28;20215;-79
2022/12/10 13:15:44;;;;;;;43.10;23.73;;;;;;;;;;5046598;28;20685;-79
2022/12/10 13:18:48;;;;;;;36.93;20.27;;;;;;;;;;5055789;28;20180;-79
2022/12/10 13:22:07;;;;;;;35.97;20.17;;;;;;;;;;5067228;28;20215;-79
2022/12/10 13:25:16;;;;;;;43.50;24.13;;;;;;;;;;5032884;28;20181;-79
2022/12/10 13:28:30;;;;;;;43.00;25.93;;;;;;;;;;5055871;28;20172;-79
2022/12/10 13:31:37;;;;;;;33.87;21.40;;;;;;;;;;5045380;28;20220;-79
2022/12/10 13:34:41;;;;;;;37.30;20.57;;;;;;;;;;5032957;28;20180;-79
2022/12/10 13:37:48;;;;;;;40.03;21.57;;;;;;;;;;5043675;28;20184;-79
2022/12/10 13:44:46;;;;;;;42.07;24.53;;;;;;;;;;5057480;28;20176;-79
2022/12/10 13:47:53;;;;;;;46.07;25.23;;;;;;;;;;5042454;28;20180;-79
2022/12/10 13:51:08;;;;;;;37.33;21.73;;;;;;;;;;5056040;28;20207;-79
2022/12/10 13:54:42;;;;;;;35.43;20.47;;;;;;;;;;5043394;28;20199;-79
2022/12/10 13:58:04;;;;;;;34.70;20.10;;;;;;;;;;5057067;28;20188;-79
2022/12/10 14:01:18;;;;;;;36.80;20.40;;;;;;;;;;5056215;28;20220;-80
2022/12/10 14:04:49;;;;;;;34.13;20.30;;;;;;;;;;5045439;28;20535;-79
2022/12/10 14:07:59;;;;;;;41.70;20.73;;;;;;;;;;5012604;28;20200;-80
2022/12/10 14:11:05;;;;;;;38.00;21.57;;;;;;;;;;5041986;28;20220;-79
2022/12/10 14:14:16;;;;;;;40.20;23.03;;;;;;;;;;5039343;28;20539;-80
2022/12/10 14:17:23;;;;;;;35.90;21.30;;;;;;;;;;5036463;28;20567;-80
2022/12/10 14:20:32;;;;;;;40.37;20.97;;;;;;;;;;5038334;28;20564;-80
2022/12/10 14:23:47;;;;;;;38.70;22.03;;;;;;;;;;5040131;28;20539;-80
2022/12/10 14:27:00;;;;;;;41.53;23.40;;;;;;;;;;5026935;28;20540;-80
2022/12/10 14:30:17;;;;;;;38.80;21.63;;;;;;;;;;5050403;28;20905;-79
2022/12/10 14:33:24;;;;;;;41.17;22.23;;;;;;;;;;5062251;28;20887;-80
2022/12/10 14:36:32;;;;;;;40.70;22.37;;;;;;;;;;5037939;28;20606;-80
2022/12/10 14:39:38;;;;;;;40.23;22.30;;;;;;;;;;5037072;28;20539;-80
2022/12/10 14:42:43;;;;;;;39.17;22.23;;;;;;;;;;5045749;28;20610;-80
2022/12/10 14:45:56;;;;;;;39.77;22.33;;;;;;;;;;5024739;28;20531;-79
2022/12/10 14:49:00;;;;;;;37.50;20.63;;;;;;;;;;5026188;28;20539;-79
2022/12/10 14:52:17;;;;;;;38.93;21.90;;;;;;;;;;5025651;28;20630;-79
2022/12/10 14:55:23;;;;;;;41.20;22.87;;;;;;;;;;5024881;28;20658;-79
2022/12/10 14:58:31;;;;;;;41.13;22.57;;;;;;;;;;5036825;28;20891;-79
2022/12/10 15:01:40;;;;;;;44.97;25.13;;;;;;;;;;5059766;28;20618;-79
2022/12/10 15:04:47;;;;;;;42.73;23.03;;;;;;;;;;5036813;28;20605;-79
2022/12/10 15:07:58;;;;;;;45.33;24.27;;;;;;;;;;5025196;28;21065;-79
2022/12/10 15:11:02;;;;;;;47.23;26.33;;;;;;;;;;5035940;28;21168;-79
2022/12/10 15:14:16;;;;;;;40.03;23.93;;;;;;;;;;5035661;28;20594;-79
2022/12/10 15:17:35;;;;;;;41.30;23.77;;;;;;;;;;5047399;28;20532;-79
2022/12/10 15:20:49;;;;;;;40.43;23.67;;;;;;;;;;5024437;28;20543;-79
2022/12/10 15:24:18;;;;;;;43.13;24.47;;;;;;;;;;5035488;28;20539;-79
2022/12/10 15:27:25;;;;;;;43.93;24.07;;;;;;;;;;5035383;28;20547;-79
2022/12/10 15:30:38;;;;;;;57.27;28.83;;;;;;;;;;5023294;28;20548;-79
2022/12/10 15:33:53;;;;;;;57.40;30.70;;;;;;;;;;5034673;28;20535;-79
2022/12/10 15:37:02;;;;;;;46.20;25.43;;;;;;;;;;5045448;28;21199;-79
2022/12/10 15:40:24;;;;;;;42.27;22.00;;;;;;;;;;5034188;28;20601;-79
2022/12/10 15:43:29;;;;;;;45.43;25.27;;;;;;;;;;5034520;28;20551;-79
2022/12/10 15:46:47;;;;;;;47.30;25.27;;;;;;;;;;5035038;28;20543;-79
2022/12/10 15:49:54;;;;;;;38.97;21.43;;;;;;;;;;5046130;28;20535;-78
2022/12/10 15:52:58;;;;;;;47.90;24.37;;;;;;;;;;5045317;28;21155;-78
2022/12/10 15:56:04;;;;;;;41.93;23.80;;;;;;;;;;5068414;22;20680;-79
2022/12/10 15:59:08;;;;;;;40.57;22.90;;;;;;;;;;5066229;28;20538;-78
2022/12/10 16:02:27;;;;;;;48.57;22.73;;;;;;;;;;5068884;28;20680;-79
2022/12/10 16:05:34;;;;;;;40.00;22.57;;;;;;;;;;5098259;28;20542;-78
2022/12/10 16:08:39;;;;;;;38.13;23.50;;;;;;;;;;5085940;28;20605;-78
2022/12/10 16:11:43;;;;;;;38.80;23.00;;;;;;;;;;5062539;28;20620;-78
2022/12/10 16:14:50;;;;;;;41.10;22.83;;;;;;;;;;5062707;28;20548;-78
2022/12/10 16:17:55;;;;;;;42.40;22.30;;;;;;;;;;5098667;28;21095;-78
2022/12/10 16:20:59;;;;;;;37.77;20.80;;;;;;;;;;5085920;28;20620;-78
2022/12/10 16:24:03;;;;;;;36.77;21.50;;;;;;;;;;5098294;28;20537;-78
2022/12/10 16:27:13;;;;;;;38.97;21.47;;;;;;;;;;5098304;28;20541;-78
2022/12/10 16:30:22;;;;;;;41.33;22.47;;;;;;;;;;5086489;28;21079;-79
2022/12/10 16:33:27;;;;;;;34.43;19.00;;;;;;;;;;5077903;28;20584;-79
2022/12/10 16:36:32;;;;;;;29.03;16.83;;;;;;;;;;5069362;28;20633;-81
2022/12/10 16:39:37;;;;;;;38.20;23.00;;;;;;;;;;5070883;28;20593;-79
2022/12/10 16:42:41;;;;;;;37.20;20.07;;;;;;;;;;5092114;28;21205;-79
2022/12/10 16:45:46;;;;;;;32.50;18.33;;;;;;;;;;5100331;28;20613;-78
2022/12/10 16:48:50;;;;;;;28.83;17.60;;;;;;;;;;5068713;28;20608;-78
2022/12/10 16:51:54;;;;;;;30.23;17.93;;;;;;;;;;5093135;28;20990;-79
2022/12/10 16:54:58;;;;;;;63.70;36.53;;;;;;;;;;5067571;28;20608;-78
2022/12/10 16:58:02;;;;;;;57.73;34.00;;;;;;;;;;5077764;28;20565;-78
2022/12/10 17:01:22;;;;;;;44.23;26.80;;;;;;;;;;5098622;28;21331;-78
2022/12/10 17:04:27;;;;;;;45.63;25.87;;;;;;;;;;5078995;28;20696;-78
2022/12/10 17:07:31;;;;;;;39.47;22.83;;;;;;;;;;5079659;28;21061;-79
2022/12/10 17:13:58;;;;;;;34.37;19.77;;;;;;;;;;5093962;28;20577;-78
2022/12/10 17:17:03;;;;;;;30.40;18.90;;;;;;;;;;5087876;28;20585;-78
2022/12/10 17:20:16;;;;;;;33.73;20.20;;;;;;;;;;5088091;28;20586;-79
2022/12/10 17:23:21;;;;;;;33.97;21.47;;;;;;;;;;5078216;28;20569;-78
2022/12/10 17:26:26;;;;;;;33.30;20.43;;;;;;;;;;5068976;28;20553;-78
2022/12/10 17:29:35;;;;;;;32.63;19.03;;;;;;;;;;5069054;28;21126;-79
2022/12/10 17:32:39;;;;;;;34.00;21.33;;;;;;;;;;5078792;28;20624;-78
2022/12/10 17:35:46;;;;;;;33.33;21.53;;;;;;;;;;5075647;28;20537;-79
2022/12/10 17:38:50;;;;;;;35.13;21.83;;;;;;;;;;5087123;28;20554;-79
2022/12/10 17:41:55;;;;;;;36.30;20.37;;;;;;;;;;5087931;28;20612;-80
2022/12/10 17:45:01;;;;;;;30.83;18.80;;;;;;;;;;5098909;28;20605;-80
2022/12/10 17:48:05;;;;;;;30.90;18.50;;;;;;;;;;5088006;28;21059;-79
2022/12/10 17:51:12;;;;;;;31.43;17.60;;;;;;;;;;5076778;28;20632;-79
2022/12/10 17:54:16;;;;;;;32.63;19.17;;;;;;;;;;5099212;28;20604;-79
2022/12/10 17:57:22;;;;;;;30.20;18.27;;;;;;;;;;5098796;28;20951;-80
2022/12/10 18:00:30;;;;;;;33.83;20.13;;;;;;;;;;5087310;28;20545;-80
2022/12/10 18:03:38;;;;;;;35.43;20.30;;;;;;;;;;5086581;28;20894;-79
2022/12/10 18:06:42;;;;;;;32.97;20.03;;;;;;;;;;5063804;28;20545;-79
2022/12/10 18:09:46;;;;;;;50.80;26.57;;;;;;;;;;5098817;28;20537;-79
2022/12/10 18:12:53;;;;;;;40.00;24.00;;;;;;;;;;5074317;28;20621;-79
2022/12/10 18:15:57;;;;;;;38.53;21.60;;;;;;;;;;5085935;28;20542;-79
2022/12/10 18:19:06;;;;;;;40.37;23.20;;;;;;;;;;5075140;28;20537;-79
2022/12/10 18:22:11;;;;;;;38.73;23.03;;;;;;;;;;5062908;28;20609;-79
2022/12/10 18:25:16;;;;;;;43.23;23.63;;;;;;;;;;5064808;28;20537;-81
2022/12/10 18:28:21;;;;;;;42.07;23.33;;;;;;;;;;5087356;28;20605;-79
2022/12/10 18:31:29;;;;;;;48.83;26.57;;;;;;;;;;5089963;28;20635;-79
2022/12/10 18:34:33;;;;;;;47.83;27.13;;;;;;;;;;5096759;28;20528;-78
2022/12/10 18:37:38;;;;;;;45.23;25.67;;;;;;;;;;5097204;28;21277;-78